createdAt,value
2023-08-27T00:01:37.510Z,19.15
2023-08-27T00:04:10.778Z,19.14
2023-08-27T00:06:44.098Z,19.13
2023-08-27T00:09:17.186Z,19.14
2023-08-27T00:11:53.829Z,19.16
2023-08-27T00:14:26.894Z,19.18
2023-08-27T00:17:02.096Z,19.21
2023-08-27T00:19:37.614Z,19.25
2023-08-27T00:22:11.146Z,19.29
2023-08-27T00:24:44.156Z,19.31
2023-08-27T00:27:17.282Z,19.32
2023-08-27T00:29:51.268Z,19.31
2023-08-27T00:32:31.823Z,19.30
2023-08-27T00:35:05.484Z,19.30
2023-08-27T00:37:38.692Z,19.31
2023-08-27T00:40:13.528Z,19.34
2023-08-27T00:42:46.597Z,19.39
2023-08-27T00:45:19.826Z,19.41
2023-08-27T00:47:53.695Z,19.40
2023-08-27T00:50:32.162Z,19.36
2023-08-27T00:53:06.038Z,19.31
2023-08-27T00:55:40.274Z,19.28
2023-08-27T00:58:13.348Z,19.24
2023-08-27T01:00:46.633Z,19.20
2023-08-27T01:03:20.032Z,19.17
2023-08-27T01:05:53.434Z,19.14
2023-08-27T01:08:32.835Z,19.11
2023-08-27T01:11:13.484Z,19.06
2023-08-27T01:13:55.433Z,19.00
2023-08-27T01:16:31.222Z,18.97
2023-08-27T01:19:09.313Z,18.95
2023-08-27T01:21:42.707Z,18.95
2023-08-27T01:24:15.834Z,18.93
2023-08-27T01:26:50.175Z,18.90
2023-08-27T01:29:27.077Z,18.85
2023-08-27T01:32:11.223Z,18.79
2023-08-27T01:34:46.004Z,18.75
2023-08-27T01:37:19.031Z,18.69
2023-08-27T01:40:07.293Z,18.67
2023-08-27T01:42:43.651Z,18.65
2023-08-27T01:45:18.954Z,18.62
2023-08-27T01:47:52.065Z,18.60
2023-08-27T01:50:25.186Z,18.60
2023-08-27T01:53:02.296Z,18.58
2023-08-27T01:55:41.911Z,18.58
2023-08-27T01:58:15.587Z,18.58
2023-08-27T02:00:48.741Z,18.60
2023-08-27T02:03:22.533Z,18.62
2023-08-27T02:05:55.382Z,18.63
2023-08-27T02:08:28.385Z,18.64
2023-08-27T02:11:07.192Z,18.64
2023-08-27T02:13:40.476Z,18.61
2023-08-27T02:16:13.597Z,18.55
2023-08-27T02:18:46.425Z,18.49
2023-08-27T02:21:20.993Z,18.42
2023-08-27T02:23:53.960Z,18.37
2023-08-27T02:26:27.043Z,18.33
2023-08-27T02:29:02.219Z,18.28
2023-08-27T02:31:38.336Z,18.23
2023-08-27T02:34:11.728Z,18.19
2023-08-27T02:36:44.828Z,18.14
2023-08-27T02:39:17.973Z,18.09
2023-08-27T02:41:52.425Z,18.05
2023-08-27T02:44:26.369Z,18.01
2023-08-27T02:47:01.410Z,17.97
2023-08-27T02:49:35.043Z,17.93
2023-08-27T02:52:08.830Z,17.89
2023-08-27T02:54:41.809Z,17.86
2023-08-27T02:57:14.847Z,17.84
2023-08-27T02:59:47.805Z,17.81
2023-08-27T03:02:20.744Z,17.80
2023-08-27T03:04:53.934Z,17.78
2023-08-27T03:07:26.920Z,17.77
2023-08-27T03:10:02.314Z,17.74
2023-08-27T03:12:35.688Z,17.70
2023-08-27T03:15:10.404Z,17.67
2023-08-27T03:17:46.106Z,17.64
2023-08-27T03:20:19.371Z,17.62
2023-08-27T03:22:52.890Z,17.59
2023-08-27T03:25:25.867Z,17.57
2023-08-27T03:27:58.910Z,17.55
2023-08-27T03:30:35.175Z,17.54
2023-08-27T03:33:09.510Z,17.51
2023-08-27T03:35:42.849Z,17.49
2023-08-27T03:38:16.639Z,17.47
2023-08-27T03:40:53.130Z,17.46
2023-08-27T03:43:26.201Z,17.45
2023-08-27T03:45:59.405Z,17.44
2023-08-27T03:48:33.643Z,17.43
2023-08-27T03:51:07.466Z,17.43
2023-08-27T03:53:41.155Z,17.43
2023-08-27T03:56:14.284Z,17.44
2023-08-27T03:58:47.393Z,17.44
2023-08-27T04:01:20.568Z,17.45
2023-08-27T04:03:54.872Z,17.45
2023-08-27T04:06:28.173Z,17.46
2023-08-27T04:09:03.645Z,17.47
2023-08-27T04:11:36.718Z,17.47
2023-08-27T04:14:09.913Z,17.47
2023-08-27T04:16:42.897Z,17.49
2023-08-27T04:19:16.260Z,17.52
2023-08-27T04:21:49.363Z,17.54
2023-08-27T04:24:24.046Z,17.57
2023-08-27T04:27:02.805Z,17.60
2023-08-27T04:29:36.397Z,17.64
2023-08-27T04:32:09.880Z,17.69
2023-08-27T04:34:44.714Z,17.94
2023-08-27T04:37:17.794Z,18.19
2023-08-27T04:39:52.176Z,18.24
2023-08-27T04:42:26.627Z,18.23
2023-08-27T04:45:02.457Z,18.18
2023-08-27T04:47:38.909Z,18.14
2023-08-27T04:50:13.205Z,18.12
2023-08-27T04:52:47.269Z,18.09
2023-08-27T04:55:20.648Z,18.07
2023-08-27T04:57:53.909Z,18.05
2023-08-27T05:00:27.003Z,18.06
2023-08-27T05:03:02.956Z,18.10
2023-08-27T05:05:36.717Z,18.12
2023-08-27T05:08:10.041Z,18.16
2023-08-27T05:10:45.944Z,18.21
2023-08-27T05:13:19.496Z,18.25
2023-08-27T05:15:52.985Z,18.29
2023-08-27T05:18:26.367Z,18.34
2023-08-27T05:21:05.746Z,18.40
2023-08-27T05:23:38.742Z,18.44
2023-08-27T05:26:11.936Z,18.50
2023-08-27T05:28:45.127Z,18.57
2023-08-27T05:31:18.338Z,18.65
2023-08-27T05:33:51.508Z,18.73
2023-08-27T05:36:24.936Z,18.83
2023-08-27T05:39:00.452Z,18.91
2023-08-27T05:41:36.631Z,18.98
2023-08-27T05:44:10.510Z,19.05
2023-08-27T05:46:43.816Z,19.11
2023-08-27T05:49:16.921Z,19.19
2023-08-27T05:51:51.448Z,19.27
2023-08-27T05:54:24.507Z,19.35
2023-08-27T05:56:58.410Z,19.41
2023-08-27T05:59:34.254Z,19.47
2023-08-27T06:02:09.627Z,19.54
2023-08-27T06:04:43.065Z,19.63
2023-08-27T06:07:16.102Z,19.70
2023-08-27T06:09:49.358Z,19.73
2023-08-27T06:12:22.510Z,19.80
2023-08-27T06:14:55.996Z,19.91
2023-08-27T06:17:29.215Z,20.07
2023-08-27T06:20:04.346Z,20.21
2023-08-27T06:22:37.583Z,20.30
2023-08-27T06:25:11.827Z,20.35
2023-08-27T06:27:47.163Z,20.40
2023-08-27T06:30:24.112Z,20.43
2023-08-27T06:33:00.199Z,20.48
2023-08-27T06:35:36.704Z,20.58
2023-08-27T06:38:13.804Z,20.61
2023-08-27T06:40:48.688Z,20.63
2023-08-27T06:43:24.093Z,20.64
2023-08-27T06:45:57.213Z,20.70
2023-08-27T06:48:30.286Z,20.77
2023-08-27T06:51:03.814Z,20.83
2023-08-27T06:53:38.881Z,20.89
2023-08-27T06:56:12.194Z,20.95
2023-08-27T06:58:45.706Z,21.04
2023-08-27T07:01:19.876Z,21.14
2023-08-27T07:03:53.644Z,21.28
2023-08-27T07:06:27.080Z,21.42
2023-08-27T07:09:04.664Z,21.58
2023-08-27T07:11:38.156Z,21.82
2023-08-27T07:14:11.463Z,22.15
2023-08-27T07:16:45.413Z,22.52
2023-08-27T07:19:35.866Z,22.83
2023-08-27T07:26:03.823Z,23.25
2023-08-27T07:29:09.412Z,23.44
2023-08-27T07:35:23.383Z,23.93
2023-08-27T07:37:57.565Z,24.16
2023-08-27T07:40:36.072Z,24.39
2023-08-27T07:43:09.977Z,24.63
2023-08-27T07:45:46.672Z,24.93
2023-08-27T07:48:36.131Z,25.29
2023-08-27T07:51:18.103Z,25.69
2023-08-27T07:54:04.650Z,25.90
2023-08-27T07:56:45.477Z,25.96
2023-08-27T07:59:22.168Z,25.94
2023-08-27T08:02:08.564Z,25.92
2023-08-27T08:04:44.159Z,25.87
2023-08-27T08:07:23.240Z,25.86
2023-08-27T08:09:57.461Z,25.90
2023-08-27T08:12:32.649Z,25.95
2023-08-27T08:15:11.498Z,25.96
2023-08-27T08:18:30.457Z,25.90
2023-08-27T08:21:26.316Z,25.86
2023-08-27T08:24:07.519Z,25.87
2023-08-27T08:26:48.505Z,25.91
2023-08-27T08:29:29.423Z,25.86
2023-08-27T08:32:05.889Z,25.79
2023-08-27T08:34:45.124Z,25.74
2023-08-27T08:37:27.366Z,25.70
2023-08-27T08:40:13.204Z,25.61
2023-08-27T08:43:06.000Z,25.42
2023-08-27T08:45:47.911Z,25.24
2023-08-27T08:48:27.170Z,25.04
2023-08-27T08:51:02.588Z,24.85
2023-08-27T08:53:49.811Z,24.76
2023-08-27T08:56:25.690Z,24.65
2023-08-27T08:59:03.128Z,24.60
2023-08-27T09:01:36.281Z,24.54
2023-08-27T09:04:10.896Z,24.44
2023-08-27T09:06:45.992Z,24.28
2023-08-27T09:09:19.855Z,24.15
2023-08-27T09:11:59.517Z,24.10
2023-08-27T09:14:38.352Z,24.14
2023-08-27T09:17:14.801Z,24.23
2023-08-27T09:19:52.684Z,24.26
2023-08-27T09:22:25.875Z,24.25
2023-08-27T09:24:58.930Z,24.16
2023-08-27T09:27:34.615Z,24.03
2023-08-27T09:30:09.169Z,23.83
2023-08-27T09:32:42.609Z,23.61
2023-08-27T09:35:16.236Z,23.41
2023-08-27T09:37:49.939Z,23.21
2023-08-27T09:40:26.792Z,23.05
2023-08-27T09:43:08.632Z,22.89
2023-08-27T09:45:42.817Z,22.73
2023-08-27T09:48:27.657Z,22.59
2023-08-27T09:51:08.351Z,22.43
2023-08-27T09:53:41.845Z,22.27
2023-08-27T09:56:15.004Z,22.14
2023-08-27T09:58:48.312Z,22.02
2023-08-27T10:01:21.637Z,21.91
2023-08-27T10:03:55.491Z,21.83
2023-08-27T10:06:29.114Z,21.76
2023-08-27T10:09:04.504Z,21.71
2023-08-27T10:11:38.376Z,21.66
2023-08-27T10:14:11.614Z,21.61
2023-08-27T10:16:44.906Z,21.56
2023-08-27T10:19:21.040Z,21.52
2023-08-27T10:21:54.383Z,21.47
2023-08-27T10:24:28.028Z,21.43
2023-08-27T10:27:05.945Z,21.38
2023-08-27T10:29:39.540Z,21.33
2023-08-27T10:32:12.801Z,21.28
2023-08-27T10:34:48.874Z,21.23
2023-08-27T10:37:23.595Z,21.19
2023-08-27T10:39:57.353Z,21.15
2023-08-27T10:42:41.794Z,21.13
2023-08-27T10:49:28.765Z,21.07
2023-08-27T10:56:46.847Z,20.86
2023-08-27T10:59:46.170Z,20.81
2023-08-27T11:02:20.307Z,20.78
2023-08-27T11:04:55.977Z,20.77
2023-08-27T11:07:29.257Z,20.78
2023-08-27T11:10:08.127Z,20.79
2023-08-27T11:12:41.623Z,20.83
2023-08-27T11:15:18.310Z,20.88
2023-08-27T11:17:51.975Z,20.92
2023-08-27T11:20:27.803Z,21.01
2023-08-27T11:23:04.802Z,21.07
2023-08-27T11:26:13.912Z,21.17
2023-08-27T11:28:56.745Z,21.28
2023-08-27T11:32:06.357Z,21.42
2023-08-27T11:57:36.939Z,22.58
2023-08-27T12:00:35.469Z,22.77
2023-08-27T12:03:15.904Z,22.84
2023-08-27T12:05:57.030Z,22.84
2023-08-27T12:12:40.544Z,22.75
2023-08-27T12:15:14.498Z,22.74
2023-08-27T12:17:49.670Z,22.72
2023-08-27T12:20:37.483Z,22.69
2023-08-27T12:23:17.212Z,22.58
2023-08-27T12:25:57.041Z,22.44
2023-08-27T12:28:40.194Z,22.29
2023-08-27T12:31:33.827Z,22.15
2023-08-27T12:34:20.805Z,22.03
2023-08-27T12:36:55.429Z,21.94
2023-08-27T12:39:40.769Z,21.85
2023-08-27T12:42:18.204Z,21.77
2023-08-27T12:45:02.080Z,21.72
2023-08-27T12:47:38.193Z,21.69
2023-08-27T12:50:18.388Z,21.68
2023-08-27T12:53:44.797Z,21.66
2023-08-27T12:56:24.608Z,21.62
2023-08-27T12:59:00.520Z,21.58
2023-08-27T13:01:42.558Z,21.56
2023-08-27T13:04:34.490Z,21.56
2023-08-27T13:07:12.471Z,21.58
2023-08-27T13:09:49.195Z,21.58
2023-08-27T13:12:23.906Z,21.57
2023-08-27T13:14:59.428Z,21.56
2023-08-27T13:17:35.915Z,21.53
2023-08-27T13:20:18.820Z,21.49
2023-08-27T13:22:54.018Z,21.46
2023-08-27T13:25:30.909Z,21.44
2023-08-27T13:28:08.576Z,21.44
2023-08-27T13:37:26.349Z,21.43
2023-08-27T13:40:14.594Z,21.38
2023-08-27T13:42:57.376Z,21.31
2023-08-27T13:45:43.164Z,21.23
2023-08-27T13:49:24.953Z,21.17
2023-08-27T13:52:27.302Z,21.16
2023-08-27T13:55:14.513Z,21.20
2023-08-27T13:57:55.486Z,21.26
2023-08-27T14:00:36.974Z,21.31
2023-08-27T14:03:16.763Z,21.35
2023-08-27T14:05:54.916Z,21.33
2023-08-27T14:08:37.564Z,21.31
2023-08-27T14:11:17.198Z,21.26
2023-08-27T14:13:58.358Z,21.19
2023-08-27T14:16:38.803Z,21.13
2023-08-27T14:19:21.307Z,21.08
2023-08-27T14:22:00.743Z,21.03
